sensor_id;sensor_type;location;lat;lon;timestamp;pressure;altitude;pressure_sealevel;temperature;humidity
40992;BME280;29633;49.168;9.848;2022-07-23T00:01:36;96860.88;;;28.66;38.74
40992;BME280;29633;49.168;9.848;2022-07-23T00:04:02;96855.34;;;28.67;38.82
40992;BME280;29633;49.168;9.848;2022-07-23T00:06:28;96862.50;;;28.67;39.25
40992;BME280;29633;49.168;9.848;2022-07-23T00:08:54;96860.03;;;28.65;39.43
40992;BME280;29633;49.168;9.848;2022-07-23T00:11:19;96855.78;;;28.64;39.36
40992;BME280;29633;49.168;9.848;2022-07-23T00:13:47;96848.59;;;28.65;39.29
40992;BME280;29633;49.168;9.848;2022-07-23T00:16:13;96853.47;;;28.56;38.87
40992;BME280;29633;49.168;9.848;2022-07-23T00:18:39;96852.09;;;28.54;39.13
40992;BME280;29633;49.168;9.848;2022-07-23T00:21:05;96848.34;;;28.55;38.90
40992;BME280;29633;49.168;9.848;2022-07-23T00:23:30;96852.31;;;28.52;38.56
40992;BME280;29633;49.168;9.848;2022-07-23T00:25:57;96843.97;;;28.49;38.85
40992;BME280;29633;49.168;9.848;2022-07-23T00:28:22;96840.13;;;28.45;38.45
40992;BME280;29633;49.168;9.848;2022-07-23T00:30:48;96829.59;;;28.38;38.43
40992;BME280;29633;49.168;9.848;2022-07-23T00:33:14;96832.97;;;28.33;38.51
40992;BME280;29633;49.168;9.848;2022-07-23T00:35:40;96835.53;;;28.28;38.34
40992;BME280;29633;49.168;9.848;2022-07-23T00:38:08;96829.13;;;28.29;38.51
40992;BME280;29633;49.168;9.848;2022-07-23T00:40:35;96815.81;;;28.29;38.03
40992;BME280;29633;49.168;9.848;2022-07-23T00:43:03;96812.91;;;28.31;38.10
40992;BME280;29633;49.168;9.848;2022-07-23T00:45:29;96798.28;;;28.33;37.94
40992;BME280;29633;49.168;9.848;2022-07-23T00:47:55;96789.25;;;28.34;37.66
40992;BME280;29633;49.168;9.848;2022-07-23T00:50:21;96779.41;;;28.35;37.40
40992;BME280;29633;49.168;9.848;2022-07-23T00:52:47;96778.94;;;28.38;37.24
40992;BME280;29633;49.168;9.848;2022-07-23T00:55:13;96785.91;;;28.39;37.25
40992;BME280;29633;49.168;9.848;2022-07-23T00:57:40;96784.59;;;28.42;37.09
40992;BME280;29633;49.168;9.848;2022-07-23T01:00:10;96785.44;;;28.42;36.93
40992;BME280;29633;49.168;9.848;2022-07-23T01:02:37;96780.09;;;28.42;36.83
40992;BME280;29633;49.168;9.848;2022-07-23T01:05:03;96786.25;;;28.43;36.81
40992;BME280;29633;49.168;9.848;2022-07-23T01:07:30;96790.75;;;28.42;36.67
40992;BME280;29633;49.168;9.848;2022-07-23T01:09:55;96798.50;;;28.44;36.73
40992;BME280;29633;49.168;9.848;2022-07-23T01:12:22;96787.84;;;28.44;36.86
40992;BME280;29633;49.168;9.848;2022-07-23T01:14:58;96788.66;;;28.44;36.59
40992;BME280;29633;49.168;9.848;2022-07-23T01:17:25;96807.09;;;28.46;36.52
40992;BME280;29633;49.168;9.848;2022-07-23T01:19:51;96798.63;;;28.49;36.60
40992;BME280;29633;49.168;9.848;2022-07-23T01:22:21;96793.28;;;28.49;36.56
40992;BME280;29633;49.168;9.848;2022-07-23T01:24:47;96799.19;;;28.51;36.52
40992;BME280;29633;49.168;9.848;2022-07-23T01:27:13;96802.66;;;28.51;36.53
40992;BME280;29633;49.168;9.848;2022-07-23T01:29:39;96806.97;;;28.52;36.58
40992;BME280;29633;49.168;9.848;2022-07-23T01:32:07;96810.19;;;28.54;36.54
40992;BME280;29633;49.168;9.848;2022-07-23T01:34:32;96810.44;;;28.53;36.40
40992;BME280;29633;49.168;9.848;2022-07-23T01:36:58;96806.75;;;28.54;36.36
40992;BME280;29633;49.168;9.848;2022-07-23T01:39:24;96803.25;;;28.53;36.42
40992;BME280;29633;49.168;9.848;2022-07-23T01:41:50;96809.97;;;28.56;36.53
40992;BME280;29633;49.168;9.848;2022-07-23T01:44:15;96801.41;;;28.54;36.36
40992;BME280;29633;49.168;9.848;2022-07-23T01:46:41;96794.44;;;28.53;36.34
40992;BME280;29633;49.168;9.848;2022-07-23T01:49:08;96796.84;;;28.54;36.29
40992;BME280;29633;49.168;9.848;2022-07-23T01:51:33;96800.81;;;28.52;36.56
40992;BME280;29633;49.168;9.848;2022-07-23T01:53:59;96798.41;;;28.50;36.54
40992;BME280;29633;49.168;9.848;2022-07-23T01:56:25;96798.16;;;28.52;36.44
40992;BME280;29633;49.168;9.848;2022-07-23T01:58:50;96798.75;;;28.54;36.30
40992;BME280;29633;49.168;9.848;2022-07-23T02:01:16;96801.84;;;28.51;36.45
40992;BME280;29633;49.168;9.848;2022-07-23T02:03:42;96808.00;;;28.51;36.34
40992;BME280;29633;49.168;9.848;2022-07-23T02:06:08;96794.91;;;28.50;36.72
40992;BME280;29633;49.168;9.848;2022-07-23T02:08:34;96789.34;;;28.51;36.43
40992;BME280;29633;49.168;9.848;2022-07-23T02:10:59;96792.25;;;28.50;36.78
40992;BME280;29633;49.168;9.848;2022-07-23T02:13:25;96784.81;;;28.52;36.50
40992;BME280;29633;49.168;9.848;2022-07-23T02:15:51;96785.84;;;28.51;36.42
40992;BME280;29633;49.168;9.848;2022-07-23T02:18:16;96780.50;;;28.51;36.36
40992;BME280;29633;49.168;9.848;2022-07-23T02:20:42;96775.44;;;28.49;36.48
40992;BME280;29633;49.168;9.848;2022-07-23T02:23:10;96777.84;;;28.51;36.48
40992;BME280;29633;49.168;9.848;2022-07-23T02:25:35;96773.31;;;28.51;36.48
40992;BME280;29633;49.168;9.848;2022-07-23T02:28:01;96768.47;;;28.48;36.59
40992;BME280;29633;49.168;9.848;2022-07-23T02:30:27;96773.81;;;28.48;36.55
40992;BME280;29633;49.168;9.848;2022-07-23T02:32:53;96785.75;;;28.46;36.66
40992;BME280;29633;49.168;9.848;2022-07-23T02:35:19;96785.44;;;28.42;36.52
40992;BME280;29633;49.168;9.848;2022-07-23T02:37:45;96790.41;;;28.39;36.62
40992;BME280;29633;49.168;9.848;2022-07-23T02:40:11;96796.78;;;28.38;36.51
40992;BME280;29633;49.168;9.848;2022-07-23T02:42:37;96791.13;;;28.34;36.57
40992;BME280;29633;49.168;9.848;2022-07-23T02:45:03;96791.13;;;28.34;36.94
40992;BME280;29633;49.168;9.848;2022-07-23T02:47:29;96804.91;;;28.31;36.63
40992;BME280;29633;49.168;9.848;2022-07-23T02:49:54;96797.94;;;28.30;36.85
40992;BME280;29633;49.168;9.848;2022-07-23T02:52:21;96800.88;;;28.28;36.68
40992;BME280;29633;49.168;9.848;2022-07-23T02:54:46;96806.75;;;28.30;36.71
40992;BME280;29633;49.168;9.848;2022-07-23T02:57:12;96807.81;;;28.29;37.03
40992;BME280;29633;49.168;9.848;2022-07-23T02:59:38;96800.88;;;28.28;36.82
40992;BME280;29633;49.168;9.848;2022-07-23T03:02:04;96811.97;;;28.25;36.95
40992;BME280;29633;49.168;9.848;2022-07-23T03:04:29;96823.47;;;28.26;36.95
40992;BME280;29633;49.168;9.848;2022-07-23T03:06:55;96819.41;;;28.23;36.94
40992;BME280;29633;49.168;9.848;2022-07-23T03:09:21;96830.53;;;28.20;36.99
40992;BME280;29633;49.168;9.848;2022-07-23T03:11:46;96833.09;;;28.15;37.12
40992;BME280;29633;49.168;9.848;2022-07-23T03:14:12;96836.09;;;28.07;37.21
40992;BME280;29633;49.168;9.848;2022-07-23T03:16:40;96837.59;;;28.03;37.32
40992;BME280;29633;49.168;9.848;2022-07-23T03:19:06;96833.75;;;27.99;37.70
40992;BME280;29633;49.168;9.848;2022-07-23T03:21:31;96834.34;;;28.01;37.55
40992;BME280;29633;49.168;9.848;2022-07-23T03:23:57;96834.13;;;28.03;37.43
40992;BME280;29633;49.168;9.848;2022-07-23T03:26:23;96838.03;;;28.00;37.48
40992;BME280;29633;49.168;9.848;2022-07-23T03:28:51;96846.63;;;28.02;37.40
40992;BME280;29633;49.168;9.848;2022-07-23T03:31:17;96846.03;;;28.00;37.38
40992;BME280;29633;49.168;9.848;2022-07-23T03:33:42;96841.97;;;27.98;37.77
40992;BME280;29633;49.168;9.848;2022-07-23T03:36:09;96838.84;;;28.01;37.48
40992;BME280;29633;49.168;9.848;2022-07-23T03:38:34;96842.56;;;28.00;37.64
40992;BME280;29633;49.168;9.848;2022-07-23T03:41:00;96848.94;;;27.99;37.67
40992;BME280;29633;49.168;9.848;2022-07-23T03:43:26;96856.94;;;27.99;37.83
40992;BME280;29633;49.168;9.848;2022-07-23T03:45:52;96858.78;;;27.98;37.44
40992;BME280;29633;49.168;9.848;2022-07-23T03:48:17;96856.69;;;28.00;37.89
40992;BME280;29633;49.168;9.848;2022-07-23T03:50:43;96860.41;;;27.99;37.84
40992;BME280;29633;49.168;9.848;2022-07-23T03:53:09;96862.00;;;28.00;38.10
40992;BME280;29633;49.168;9.848;2022-07-23T03:55:34;96864.56;;;27.95;37.91
40992;BME280;29633;49.168;9.848;2022-07-23T03:58:00;96862.94;;;27.94;38.00
40992;BME280;29633;49.168;9.848;2022-07-23T04:00:26;96862.84;;;27.89;38.05
40992;BME280;29633;49.168;9.848;2022-07-23T04:02:52;96861.06;;;27.83;38.01
40992;BME280;29633;49.168;9.848;2022-07-23T04:05:18;96865.22;;;27.79;38.03
40992;BME280;29633;49.168;9.848;2022-07-23T04:07:43;96855.97;;;27.70;38.08
40992;BME280;29633;49.168;9.848;2022-07-23T04:10:09;96868.56;;;27.63;38.07
40992;BME280;29633;49.168;9.848;2022-07-23T04:12:35;96870.28;;;27.57;38.21
40992;BME280;29633;49.168;9.848;2022-07-23T04:15:01;96873.41;;;27.54;38.32
40992;BME280;29633;49.168;9.848;2022-07-23T04:17:27;96863.88;;;27.47;38.47
40992;BME280;29633;49.168;9.848;2022-07-23T04:19:53;96868.47;;;27.39;38.38
40992;BME280;29633;49.168;9.848;2022-07-23T04:22:19;96869.94;;;27.35;38.36
40992;BME280;29633;49.168;9.848;2022-07-23T04:24:45;96867.16;;;27.30;38.53
40992;BME280;29633;49.168;9.848;2022-07-23T04:27:10;96868.88;;;27.25;38.61
40992;BME280;29633;49.168;9.848;2022-07-23T04:29:36;96877.09;;;27.23;38.63
40992;BME280;29633;49.168;9.848;2022-07-23T04:32:02;96872.59;;;27.24;38.49
40992;BME280;29633;49.168;9.848;2022-07-23T04:34:28;96871.78;;;27.23;38.65
40992;BME280;29633;49.168;9.848;2022-07-23T04:36:54;96868.50;;;27.21;38.79
40992;BME280;29633;49.168;9.848;2022-07-23T04:39:20;96868.97;;;27.18;38.94
40992;BME280;29633;49.168;9.848;2022-07-23T04:41:46;96868.16;;;27.18;38.95
40992;BME280;29633;49.168;9.848;2022-07-23T04:44:12;96870.59;;;27.19;39.16
40992;BME280;29633;49.168;9.848;2022-07-23T04:46:37;96869.41;;;27.15;39.13
40992;BME280;29633;49.168;9.848;2022-07-23T04:49:03;96882.56;;;27.10;39.27
40992;BME280;29633;49.168;9.848;2022-07-23T04:51:29;96883.63;;;27.09;39.33
40992;BME280;29633;49.168;9.848;2022-07-23T04:53:55;96893.81;;;27.12;39.33
40992;BME280;29633;49.168;9.848;2022-07-23T04:56:21;96889.91;;;27.15;39.44
40992;BME280;29633;49.168;9.848;2022-07-23T04:58:47;96894.75;;;27.18;39.40
40992;BME280;29633;49.168;9.848;2022-07-23T05:01:13;96888.16;;;27.20;39.27
40992;BME280;29633;49.168;9.848;2022-07-23T05:03:39;96896.75;;;27.22;39.36
40992;BME280;29633;49.168;9.848;2022-07-23T05:06:05;96903.72;;;27.23;39.51
40992;BME280;29633;49.168;9.848;2022-07-23T05:08:31;96903.25;;;27.26;39.42
40992;BME280;29633;49.168;9.848;2022-07-23T05:10:57;96905.94;;;27.26;39.47
40992;BME280;29633;49.168;9.848;2022-07-23T05:13:22;96911.63;;;27.30;39.57
40992;BME280;29633;49.168;9.848;2022-07-23T05:15:48;96914.50;;;27.28;39.59
40992;BME280;29633;49.168;9.848;2022-07-23T05:18:15;96907.31;;;27.29;39.69
40992;BME280;29633;49.168;9.848;2022-07-23T05:20:41;96912.44;;;27.30;39.78
40992;BME280;29633;49.168;9.848;2022-07-23T05:23:07;96911.81;;;27.28;39.82
40992;BME280;29633;49.168;9.848;2022-07-23T05:25:33;96911.63;;;27.30;39.82
40992;BME280;29633;49.168;9.848;2022-07-23T05:27:58;96904.44;;;27.30;39.81
40992;BME280;29633;49.168;9.848;2022-07-23T05:30:24;96909.97;;;27.29;39.81
40992;BME280;29633;49.168;9.848;2022-07-23T05:32:50;96914.03;;;27.31;40.01
40992;BME280;29633;49.168;9.848;2022-07-23T05:35:16;96922.38;;;27.35;40.06
40992;BME280;29633;49.168;9.848;2022-07-23T05:37:42;96929.13;;;27.37;40.16
40992;BME280;29633;49.168;9.848;2022-07-23T05:40:09;96927.66;;;27.42;40.22
40992;BME280;29633;49.168;9.848;2022-07-23T05:42:37;96926.97;;;27.46;40.11
40992;BME280;29633;49.168;9.848;2022-07-23T05:45:04;96924.69;;;27.50;40.20
40992;BME280;29633;49.168;9.848;2022-07-23T05:47:44;96927.13;;;27.51;40.27
40992;BME280;29633;49.168;9.848;2022-07-23T05:50:11;96937.31;;;27.54;40.25
40992;BME280;29633;49.168;9.848;2022-07-23T05:52:38;96929.94;;;27.56;40.38
40992;BME280;29633;49.168;9.848;2022-07-23T05:55:05;96932.16;;;27.59;40.46
40992;BME280;29633;49.168;9.848;2022-07-23T05:57:31;96935.16;;;27.63;40.34
40992;BME280;29633;49.168;9.848;2022-07-23T05:59:56;96931.84;;;27.67;40.50
40992;BME280;29633;49.168;9.848;2022-07-23T06:02:22;96930.09;;;27.73;40.33
40992;BME280;29633;49.168;9.848;2022-07-23T06:04:48;96938.44;;;27.76;40.27
40992;BME280;29633;49.168;9.848;2022-07-23T06:07:13;96941.09;;;27.76;40.30
40992;BME280;29633;49.168;9.848;2022-07-23T06:09:39;96947.25;;;27.77;40.30
40992;BME280;29633;49.168;9.848;2022-07-23T06:12:05;96955.25;;;27.77;40.54
40992;BME280;29633;49.168;9.848;2022-07-23T06:14:31;96965.66;;;27.78;40.47
40992;BME280;29633;49.168;9.848;2022-07-23T06:16:57;96974.47;;;27.79;40.66
40992;BME280;29633;49.168;9.848;2022-07-23T06:19:23;96977.75;;;27.81;40.51
40992;BME280;29633;49.168;9.848;2022-07-23T06:21:48;96985.50;;;27.82;40.70
40992;BME280;29633;49.168;9.848;2022-07-23T06:24:14;96994.53;;;27.81;40.67
40992;BME280;29633;49.168;9.848;2022-07-23T06:26:40;96993.13;;;27.79;40.64
40992;BME280;29633;49.168;9.848;2022-07-23T06:29:05;96996.25;;;27.76;40.83
40992;BME280;29633;49.168;9.848;2022-07-23T06:31:31;97000.19;;;27.73;40.64
40992;BME280;29633;49.168;9.848;2022-07-23T06:33:57;97001.44;;;27.71;40.70
40992;BME280;29633;49.168;9.848;2022-07-23T06:36:23;96995.31;;;27.70;41.07
40992;BME280;29633;49.168;9.848;2022-07-23T06:38:48;96997.38;;;27.68;41.02
40992;BME280;29633;49.168;9.848;2022-07-23T06:41:14;97007.91;;;27.63;41.24
40992;BME280;29633;49.168;9.848;2022-07-23T06:43:40;96997.25;;;27.63;41.42
40992;BME280;29633;49.168;9.848;2022-07-23T06:46:05;96991.69;;;27.65;41.53
40992;BME280;29633;49.168;9.848;2022-07-23T06:48:31;96996.44;;;27.63;41.61
40992;BME280;29633;49.168;9.848;2022-07-23T06:50:57;97001.88;;;27.68;41.67
40992;BME280;29633;49.168;9.848;2022-07-23T06:53:23;97003.50;;;27.69;41.64
40992;BME280;29633;49.168;9.848;2022-07-23T06:55:48;96995.75;;;27.67;41.77
40992;BME280;29633;49.168;9.848;2022-07-23T06:58:14;96992.03;;;27.68;41.83
40992;BME280;29633;49.168;9.848;2022-07-23T07:00:40;96978.97;;;27.67;42.29
40992;BME280;29633;49.168;9.848;2022-07-23T07:03:06;96975.94;;;27.63;42.69
40992;BME280;29633;49.168;9.848;2022-07-23T07:05:32;96969.19;;;27.61;43.06
40992;BME280;29633;49.168;9.848;2022-07-23T07:07:57;96956.31;;;27.58;43.79
40992;BME280;29633;49.168;9.848;2022-07-23T07:10:23;96960.63;;;27.59;43.86
40992;BME280;29633;49.168;9.848;2022-07-23T07:12:49;96975.56;;;27.60;43.95
40992;BME280;29633;49.168;9.848;2022-07-23T07:15:15;96980.75;;;27.55;44.24
40992;BME280;29633;49.168;9.848;2022-07-23T07:17:43;96982.84;;;27.53;44.35
40992;BME280;29633;49.168;9.848;2022-07-23T07:20:09;96987.56;;;27.51;44.32
40992;BME280;29633;49.168;9.848;2022-07-23T07:22:35;96984.78;;;27.46;44.38
40992;BME280;29633;49.168;9.848;2022-07-23T07:25:01;96983.31;;;27.43;44.65
40992;BME280;29633;49.168;9.848;2022-07-23T07:27:27;96991.56;;;27.42;44.68
40992;BME280;29633;49.168;9.848;2022-07-23T07:29:52;96995.44;;;27.46;44.77
40992;BME280;29633;49.168;9.848;2022-07-23T07:32:18;96996.16;;;27.53;45.03
40992;BME280;29633;49.168;9.848;2022-07-23T07:34:44;97006.34;;;27.56;44.84
40992;BME280;29633;49.168;9.848;2022-07-23T07:37:09;97028.69;;;27.55;45.27
40992;BME280;29633;49.168;9.848;2022-07-23T07:39:35;97055.16;;;27.50;45.32
40992;BME280;29633;49.168;9.848;2022-07-23T07:42:01;97067.72;;;27.42;45.45
40992;BME280;29633;49.168;9.848;2022-07-23T07:44:27;97089.53;;;27.33;45.64
40992;BME280;29633;49.168;9.848;2022-07-23T07:46:52;97087.16;;;27.25;45.69
40992;BME280;29633;49.168;9.848;2022-07-23T07:49:18;97087.22;;;27.18;45.92
40992;BME280;29633;49.168;9.848;2022-07-23T07:51:45;97094.03;;;27.14;45.90
40992;BME280;29633;49.168;9.848;2022-07-23T07:54:14;97099.63;;;27.06;46.13
40992;BME280;29633;49.168;9.848;2022-07-23T07:56:40;97094.59;;;26.98;46.15
40992;BME280;29633;49.168;9.848;2022-07-23T07:59:06;97102.84;;;26.90;46.18
40992;BME280;29633;49.168;9.848;2022-07-23T08:01:31;97109.06;;;26.84;46.49
40992;BME280;29633;49.168;9.848;2022-07-23T08:03:57;97106.38;;;26.77;46.54
40992;BME280;29633;49.168;9.848;2022-07-23T08:06:23;97091.50;;;26.70;46.68
40992;BME280;29633;49.168;9.848;2022-07-23T08:08:49;97082.34;;;26.66;46.78
40992;BME280;29633;49.168;9.848;2022-07-23T08:11:15;97080.34;;;26.61;46.61
40992;BME280;29633;49.168;9.848;2022-07-23T08:13:40;97079.53;;;26.61;46.68
40992;BME280;29633;49.168;9.848;2022-07-23T08:16:07;97069.31;;;26.58;46.80
40992;BME280;29633;49.168;9.848;2022-07-23T08:18:32;97061.53;;;26.56;46.68
40992;BME280;29633;49.168;9.848;2022-07-23T08:20:58;97046.41;;;26.57;46.82
40992;BME280;29633;49.168;9.848;2022-07-23T08:23:24;97052.34;;;26.59;47.11
40992;BME280;29633;49.168;9.848;2022-07-23T08:25:49;97046.22;;;26.58;47.24
40992;BME280;29633;49.168;9.848;2022-07-23T08:28:15;97052.50;;;26.64;46.99
40992;BME280;29633;49.168;9.848;2022-07-23T08:30:43;97039.38;;;26.69;47.23
40992;BME280;29633;49.168;9.848;2022-07-23T08:33:17;97033.22;;;26.68;47.54
40992;BME280;29633;49.168;9.848;2022-07-23T08:35:46;97027.72;;;26.63;47.67
40992;BME280;29633;49.168;9.848;2022-07-23T08:38:15;97021.78;;;26.68;47.85
40992;BME280;29633;49.168;9.848;2022-07-23T08:40:45;97004.56;;;26.70;48.04
40992;BME280;29633;49.168;9.848;2022-07-23T08:43:15;97006.41;;;26.70;48.13
40992;BME280;29633;49.168;9.848;2022-07-23T08:45:47;97032.13;;;26.76;48.15
40992;BME280;29633;49.168;9.848;2022-07-23T08:48:21;97039.47;;;26.80;47.88
40992;BME280;29633;49.168;9.848;2022-07-23T08:50:54;97033.75;;;26.83;47.81
40992;BME280;29633;49.168;9.848;2022-07-23T08:53:22;97034.13;;;26.87;47.43
40992;BME280;29633;49.168;9.848;2022-07-23T08:55:51;97039.81;;;26.90;47.43
40992;BME280;29633;49.168;9.848;2022-07-23T08:58:18;97033.22;;;26.93;47.52
40992;BME280;29633;49.168;9.848;2022-07-23T09:00:45;97030.63;;;26.86;47.48
40992;BME280;29633;49.168;9.848;2022-07-23T09:03:22;97040.94;;;26.76;47.97
40992;BME280;29633;49.168;9.848;2022-07-23T09:05:50;97045.44;;;26.76;48.25
40992;BME280;29633;49.168;9.848;2022-07-23T09:08:23;97058.13;;;26.74;48.16
40992;BME280;29633;49.168;9.848;2022-07-23T09:10:58;97061.47;;;26.69;48.78
40992;BME280;29633;49.168;9.848;2022-07-23T09:13:25;97071.66;;;26.72;48.48
40992;BME280;29633;49.168;9.848;2022-07-23T09:15:54;97081.69;;;26.70;48.79
40992;BME280;29633;49.168;9.848;2022-07-23T09:18:38;97076.59;;;26.69;48.78
40992;BME280;29633;49.168;9.848;2022-07-23T09:21:28;97083.97;;;26.67;48.70
40992;BME280;29633;49.168;9.848;2022-07-23T09:24:20;97081.69;;;26.70;48.52
40992;BME280;29633;49.168;9.848;2022-07-23T09:26:47;97076.66;;;26.62;47.99
40992;BME280;29633;49.168;9.848;2022-07-23T09:29:22;97077.25;;;26.64;48.62
40992;BME280;29633;49.168;9.848;2022-07-23T09:31:51;97086.63;;;26.67;48.63
40992;BME280;29633;49.168;9.848;2022-07-23T09:34:28;97066.81;;;26.63;48.99
40992;BME280;29633;49.168;9.848;2022-07-23T09:37:12;97074.19;;;26.61;48.89
40992;BME280;29633;49.168;9.848;2022-07-23T09:39:39;97078.25;;;26.63;49.08
40992;BME280;29633;49.168;9.848;2022-07-23T09:42:25;97078.94;;;26.59;49.17
40992;BME280;29633;49.168;9.848;2022-07-23T09:44:57;97081.16;;;26.62;48.93
40992;BME280;29633;49.168;9.848;2022-07-23T09:47:25;97077.56;;;26.50;48.66
40992;BME280;29633;49.168;9.848;2022-07-23T09:50:09;97080.81;;;26.52;49.18
40992;BME280;29633;49.168;9.848;2022-07-23T09:52:48;97077.50;;;26.56;49.22
40992;BME280;29633;49.168;9.848;2022-07-23T09:55:17;97084.91;;;26.54;49.23
40992;BME280;29633;49.168;9.848;2022-07-23T09:57:44;97074.25;;;26.54;49.19
40992;BME280;29633;49.168;9.848;2022-07-23T10:00:12;97078.31;;;26.57;49.26
40992;BME280;29633;49.168;9.848;2022-07-23T10:02:39;97089.56;;;26.59;48.91
40992;BME280;29633;49.168;9.848;2022-07-23T10:05:06;97084.25;;;26.59;49.53
40992;BME280;29633;49.168;9.848;2022-07-23T10:07:37;97092.19;;;26.65;49.06
40992;BME280;29633;49.168;9.848;2022-07-23T10:10:05;97083.97;;;26.67;48.99
40992;BME280;29633;49.168;9.848;2022-07-23T10:12:31;97081.66;;;26.77;49.15
40992;BME280;29633;49.168;9.848;2022-07-23T10:15:06;97081.38;;;26.85;48.79
40992;BME280;29633;49.168;9.848;2022-07-23T10:17:34;97079.88;;;26.96;48.78
40992;BME280;29633;49.168;9.848;2022-07-23T10:20:00;97084.09;;;27.03;48.72
40992;BME280;29633;49.168;9.848;2022-07-23T10:22:40;97078.69;;;27.10;48.63
40992;BME280;29633;49.168;9.848;2022-07-23T10:25:22;97085.97;;;27.21;49.01
40992;BME280;29633;49.168;9.848;2022-07-23T10:28:22;97080.59;;;27.27;49.44
40992;BME280;29633;49.168;9.848;2022-07-23T10:36:52;97083.59;;;27.56;49.60
40992;BME280;29633;49.168;9.848;2022-07-23T10:39:31;97075.69;;;27.67;49.23
40992;BME280;29633;49.168;9.848;2022-07-23T10:42:17;97081.88;;;27.79;48.84
40992;BME280;29633;49.168;9.848;2022-07-23T10:44:44;97080.91;;;27.92;48.79
40992;BME280;29633;49.168;9.848;2022-07-23T10:47:12;97076.75;;;27.96;48.63
40992;BME280;29633;49.168;9.848;2022-07-23T10:50:26;97080.94;;;28.04;48.15
40992;BME280;29633;49.168;9.848;2022-07-23T10:53:17;97075.69;;;28.15;48.26
40992;BME280;29633;49.168;9.848;2022-07-23T10:55:46;97070.03;;;28.23;47.67
40992;BME280;29633;49.168;9.848;2022-07-23T10:58:20;97072.03;;;28.28;48.29
40992;BME280;29633;49.168;9.848;2022-07-23T11:00:46;97074.72;;;28.40;48.38
40992;BME280;29633;49.168;9.848;2022-07-23T11:03:30;97077.19;;;28.53;48.23
40992;BME280;29633;49.168;9.848;2022-07-23T11:05:58;97071.06;;;28.64;48.35
40992;BME280;29633;49.168;9.848;2022-07-23T11:08:24;97072.72;;;28.76;48.21
40992;BME280;29633;49.168;9.848;2022-07-23T11:24:16;97068.22;;;29.35;46.10
40992;BME280;29633;49.168;9.848;2022-07-23T11:26:48;97061.72;;;29.43;45.50
40992;BME280;29633;49.168;9.848;2022-07-23T11:31:56;97054.84;;;29.58;45.01
40992;BME280;29633;49.168;9.848;2022-07-23T11:34:41;97050.50;;;29.69;44.94
40992;BME280;29633;49.168;9.848;2022-07-23T11:37:10;97052.56;;;29.78;44.54
40992;BME280;29633;49.168;9.848;2022-07-23T11:39:37;97050.09;;;29.89;44.75
40992;BME280;29633;49.168;9.848;2022-07-23T11:42:06;97046.25;;;29.96;44.34
40992;BME280;29633;49.168;9.848;2022-07-23T11:44:38;97048.78;;;30.03;43.49
40992;BME280;29633;49.168;9.848;2022-07-23T11:47:07;97047.03;;;30.08;43.28
40992;BME280;29633;49.168;9.848;2022-07-23T11:49:33;97049.75;;;30.13;42.31
40992;BME280;29633;49.168;9.848;2022-07-23T11:52:13;97050.34;;;30.15;42.07
40992;BME280;29633;49.168;9.848;2022-07-23T11:55:00;97040.31;;;30.22;41.88
40992;BME280;29633;49.168;9.848;2022-07-23T11:57:33;97041.78;;;30.30;41.67
40992;BME280;29633;49.168;9.848;2022-07-23T12:00:08;97038.97;;;30.37;41.38
40992;BME280;29633;49.168;9.848;2022-07-23T12:02:42;97035.78;;;30.40;41.18
40992;BME280;29633;49.168;9.848;2022-07-23T12:05:19;97035.44;;;30.48;41.05
40992;BME280;29633;49.168;9.848;2022-07-23T12:07:47;97027.00;;;30.56;40.72
40992;BME280;29633;49.168;9.848;2022-07-23T12:10:35;97021.50;;;30.62;40.35
40992;BME280;29633;49.168;9.848;2022-07-23T12:13:05;97027.16;;;30.66;40.54
40992;BME280;29633;49.168;9.848;2022-07-23T12:18:10;97023.09;;;30.80;40.39
40992;BME280;29633;49.168;9.848;2022-07-23T12:20:40;97020.56;;;30.90;40.21
40992;BME280;29633;49.168;9.848;2022-07-23T12:23:10;97022.38;;;31.01;39.96
40992;BME280;29633;49.168;9.848;2022-07-23T12:25:41;97019.03;;;31.11;39.96
40992;BME280;29633;49.168;9.848;2022-07-23T12:30:45;97015.25;;;31.29;39.35
40992;BME280;29633;49.168;9.848;2022-07-23T12:33:28;97020.13;;;31.32;39.53
40992;BME280;29633;49.168;9.848;2022-07-23T12:35:58;97020.75;;;31.39;39.39
40992;BME280;29633;49.168;9.848;2022-07-23T12:38:39;97023.78;;;31.47;39.40
40992;BME280;29633;49.168;9.848;2022-07-23T12:41:05;97015.84;;;31.52;38.94
40992;BME280;29633;49.168;9.848;2022-07-23T12:43:37;97018.59;;;31.57;38.82
40992;BME280;29633;49.168;9.848;2022-07-23T12:46:06;97026.16;;;31.65;38.70
40992;BME280;29633;49.168;9.848;2022-07-23T12:48:35;97019.31;;;31.75;39.04
40992;BME280;29633;49.168;9.848;2022-07-23T12:51:06;97017.75;;;31.79;38.54
40992;BME280;29633;49.168;9.848;2022-07-23T12:53:48;97015.81;;;31.74;38.54
40992;BME280;29633;49.168;9.848;2022-07-23T12:56:19;97022.84;;;31.80;38.10
40992;BME280;29633;49.168;9.848;2022-07-23T12:59:05;97028.09;;;31.70;39.15
40992;BME280;29633;49.168;9.848;2022-07-23T13:01:35;97023.13;;;31.79;38.78
40992;BME280;29633;49.168;9.848;2022-07-23T13:04:18;97022.94;;;31.85;38.26
40992;BME280;29633;49.168;9.848;2022-07-23T13:06:57;97030.22;;;31.90;38.46
40992;BME280;29633;49.168;9.848;2022-07-23T13:09:26;97026.53;;;31.96;38.18
40992;BME280;29633;49.168;9.848;2022-07-23T13:11:54;97034.38;;;32.02;38.40
40992;BME280;29633;49.168;9.848;2022-07-23T13:14:21;97030.16;;;32.06;37.91
40992;BME280;29633;49.168;9.848;2022-07-23T13:16:50;97032.06;;;32.11;37.36
40992;BME280;29633;49.168;9.848;2022-07-23T13:19:16;97037.75;;;32.14;37.79
40992;BME280;29633;49.168;9.848;2022-07-23T13:21:43;97028.66;;;32.15;38.05
40992;BME280;29633;49.168;9.848;2022-07-23T13:24:11;97037.00;;;32.19;37.65
40992;BME280;29633;49.168;9.848;2022-07-23T13:26:38;97036.47;;;32.22;37.90
40992;BME280;29633;49.168;9.848;2022-07-23T13:29:05;97032.78;;;32.28;37.71
40992;BME280;29633;49.168;9.848;2022-07-23T13:31:31;97027.41;;;32.28;37.41
40992;BME280;29633;49.168;9.848;2022-07-23T13:33:56;97030.09;;;32.28;37.51